sensor_id;sensor_type;location;lat;lon;timestamp;P1;durP1;ratioP1;P2;durP2;ratioP2
9102;SDS011;4587;51.434;6.788;2022-12-18T00:01:33;14.43;;;10.90;;
9102;SDS011;4587;51.434;6.788;2022-12-18T00:04:01;14.20;;;10.27;;
9102;SDS011;4587;51.434;6.788;2022-12-18T00:06:29;15.67;;;10.23;;
9102;SDS011;4587;51.434;6.788;2022-12-18T00:08:55;14.77;;;10.10;;
9102;SDS011;4587;51.434;6.788;2022-12-18T00:11:23;14.93;;;10.03;;
9102;SDS011;4587;51.434;6.788;2022-12-18T00:13:51;14.70;;;10.10;;
9102;SDS011;4587;51.434;6.788;2022-12-18T00:16:19;15.20;;;10.67;;
9102;SDS011;4587;51.434;6.788;2022-12-18T00:18:47;16.20;;;10.40;;
9102;SDS011;4587;51.434;6.788;2022-12-18T00:21:14;14.50;;;10.63;;
9102;SDS011;4587;51.434;6.788;2022-12-18T00:23:41;15.97;;;10.57;;
9102;SDS011;4587;51.434;6.788;2022-12-18T00:26:10;15.20;;;10.23;;
9102;SDS011;4587;51.434;6.788;2022-12-18T00:28:44;15.70;;;10.67;;
9102;SDS011;4587;51.434;6.788;2022-12-18T00:31:12;13.90;;;9.93;;
9102;SDS011;4587;51.434;6.788;2022-12-18T00:33:39;16.90;;;10.73;;
9102;SDS011;4587;51.434;6.788;2022-12-18T00:36:15;15.97;;;10.17;;
9102;SDS011;4587;51.434;6.788;2022-12-18T00:38:43;14.97;;;9.53;;
9102;SDS011;4587;51.434;6.788;2022-12-18T00:41:09;13.33;;;9.13;;
9102;SDS011;4587;51.434;6.788;2022-12-18T00:43:37;14.90;;;8.93;;
9102;SDS011;4587;51.434;6.788;2022-12-18T00:46:03;13.60;;;9.40;;
9102;SDS011;4587;51.434;6.788;2022-12-18T00:48:29;11.80;;;8.77;;
9102;SDS011;4587;51.434;6.788;2022-12-18T00:50:54;13.03;;;9.37;;
9102;SDS011;4587;51.434;6.788;2022-12-18T00:53:20;13.60;;;8.70;;
9102;SDS011;4587;51.434;6.788;2022-12-18T00:55:46;12.40;;;8.33;;
9102;SDS011;4587;51.434;6.788;2022-12-18T00:58:12;12.80;;;8.57;;
9102;SDS011;4587;51.434;6.788;2022-12-18T01:00:40;13.13;;;8.97;;
9102;SDS011;4587;51.434;6.788;2022-12-18T01:03:06;11.30;;;8.47;;
9102;SDS011;4587;51.434;6.788;2022-12-18T01:05:32;13.13;;;8.53;;
9102;SDS011;4587;51.434;6.788;2022-12-18T01:07:58;12.90;;;8.03;;
9102;SDS011;4587;51.434;6.788;2022-12-18T01:10:24;12.33;;;8.50;;
9102;SDS011;4587;51.434;6.788;2022-12-18T01:12:50;13.90;;;8.73;;
9102;SDS011;4587;51.434;6.788;2022-12-18T01:15:16;13.00;;;9.07;;
9102;SDS011;4587;51.434;6.788;2022-12-18T01:17:42;11.53;;;8.17;;
9102;SDS011;4587;51.434;6.788;2022-12-18T01:20:09;13.43;;;8.37;;
9102;SDS011;4587;51.434;6.788;2022-12-18T01:22:36;11.47;;;7.87;;
9102;SDS011;4587;51.434;6.788;2022-12-18T01:25:01;12.80;;;8.07;;
9102;SDS011;4587;51.434;6.788;2022-12-18T01:27:28;11.47;;;8.13;;
9102;SDS011;4587;51.434;6.788;2022-12-18T01:29:53;11.07;;;7.80;;
9102;SDS011;4587;51.434;6.788;2022-12-18T01:32:19;10.53;;;7.67;;
9102;SDS011;4587;51.434;6.788;2022-12-18T01:34:46;11.83;;;7.67;;
9102;SDS011;4587;51.434;6.788;2022-12-18T01:37:12;11.37;;;7.80;;
9102;SDS011;4587;51.434;6.788;2022-12-18T01:39:38;10.10;;;7.53;;
9102;SDS011;4587;51.434;6.788;2022-12-18T01:42:05;10.87;;;7.50;;
9102;SDS011;4587;51.434;6.788;2022-12-18T01:47:45;11.27;;;7.53;;
9102;SDS011;4587;51.434;6.788;2022-12-18T01:52:56;11.77;;;7.33;;
9102;SDS011;4587;51.434;6.788;2022-12-18T01:55:26;11.07;;;7.83;;
9102;SDS011;4587;51.434;6.788;2022-12-18T01:57:56;11.57;;;7.40;;
9102;SDS011;4587;51.434;6.788;2022-12-18T02:00:24;10.07;;;7.60;;
9102;SDS011;4587;51.434;6.788;2022-12-18T02:02:51;11.00;;;7.60;;
9102;SDS011;4587;51.434;6.788;2022-12-18T02:05:19;11.47;;;7.67;;
9102;SDS011;4587;51.434;6.788;2022-12-18T02:13:46;11.47;;;8.20;;
9102;SDS011;4587;51.434;6.788;2022-12-18T02:16:44;10.77;;;7.40;;
9102;SDS011;4587;51.434;6.788;2022-12-18T02:25:14;11.47;;;7.93;;
9102;SDS011;4587;51.434;6.788;2022-12-18T02:27:58;12.93;;;8.07;;
9102;SDS011;4587;51.434;6.788;2022-12-18T02:30:26;12.17;;;7.90;;
9102;SDS011;4587;51.434;6.788;2022-12-18T02:32:56;10.93;;;7.20;;
9102;SDS011;4587;51.434;6.788;2022-12-18T02:35:24;12.63;;;8.07;;
9102;SDS011;4587;51.434;6.788;2022-12-18T02:37:52;14.13;;;8.13;;
9102;SDS011;4587;51.434;6.788;2022-12-18T02:40:19;12.90;;;7.60;;
9102;SDS011;4587;51.434;6.788;2022-12-18T02:42:45;11.97;;;7.73;;
9102;SDS011;4587;51.434;6.788;2022-12-18T02:45:11;12.93;;;8.30;;
9102;SDS011;4587;51.434;6.788;2022-12-18T02:47:37;11.47;;;7.77;;
9102;SDS011;4587;51.434;6.788;2022-12-18T02:52:32;14.33;;;8.70;;
9102;SDS011;4587;51.434;6.788;2022-12-18T02:58:03;13.97;;;8.53;;
9102;SDS011;4587;51.434;6.788;2022-12-18T03:00:54;11.43;;;7.67;;
9102;SDS011;4587;51.434;6.788;2022-12-18T03:03:42;12.40;;;8.20;;
9102;SDS011;4587;51.434;6.788;2022-12-18T03:09:19;12.43;;;8.03;;
9102;SDS011;4587;51.434;6.788;2022-12-18T03:11:52;12.07;;;8.30;;
9102;SDS011;4587;51.434;6.788;2022-12-18T03:14:45;12.60;;;8.57;;
9102;SDS011;4587;51.434;6.788;2022-12-18T03:17:18;14.27;;;8.70;;
9102;SDS011;4587;51.434;6.788;2022-12-18T03:19:47;13.37;;;8.60;;
9102;SDS011;4587;51.434;6.788;2022-12-18T03:22:14;11.03;;;8.10;;
9102;SDS011;4587;51.434;6.788;2022-12-18T03:24:41;14.10;;;8.80;;
9102;SDS011;4587;51.434;6.788;2022-12-18T03:27:09;12.73;;;8.50;;
9102;SDS011;4587;51.434;6.788;2022-12-18T03:29:40;13.00;;;8.77;;
9102;SDS011;4587;51.434;6.788;2022-12-18T03:32:21;12.60;;;8.13;;
9102;SDS011;4587;51.434;6.788;2022-12-18T03:34:51;13.87;;;8.97;;
9102;SDS011;4587;51.434;6.788;2022-12-18T03:37:20;13.30;;;8.10;;
9102;SDS011;4587;51.434;6.788;2022-12-18T03:39:45;13.63;;;8.33;;
9102;SDS011;4587;51.434;6.788;2022-12-18T03:42:15;11.60;;;8.30;;
9102;SDS011;4587;51.434;6.788;2022-12-18T03:48:00;10.40;;;7.43;;
9102;SDS011;4587;51.434;6.788;2022-12-18T03:50:34;10.57;;;7.57;;
9102;SDS011;4587;51.434;6.788;2022-12-18T03:56:25;11.23;;;7.70;;
9102;SDS011;4587;51.434;6.788;2022-12-18T03:58:54;9.53;;;7.20;;
9102;SDS011;4587;51.434;6.788;2022-12-18T04:01:24;10.90;;;7.43;;
9102;SDS011;4587;51.434;6.788;2022-12-18T04:03:55;10.80;;;7.30;;
9102;SDS011;4587;51.434;6.788;2022-12-18T04:06:23;9.90;;;7.10;;
9102;SDS011;4587;51.434;6.788;2022-12-18T04:08:48;9.47;;;6.73;;
9102;SDS011;4587;51.434;6.788;2022-12-18T04:11:15;11.03;;;7.40;;
9102;SDS011;4587;51.434;6.788;2022-12-18T04:13:41;12.33;;;7.33;;
9102;SDS011;4587;51.434;6.788;2022-12-18T04:16:08;12.67;;;8.17;;
9102;SDS011;4587;51.434;6.788;2022-12-18T04:18:34;11.23;;;7.73;;
9102;SDS011;4587;51.434;6.788;2022-12-18T04:21:00;10.50;;;7.67;;
9102;SDS011;4587;51.434;6.788;2022-12-18T04:23:26;11.33;;;7.27;;
9102;SDS011;4587;51.434;6.788;2022-12-18T04:25:52;10.73;;;7.40;;
9102;SDS011;4587;51.434;6.788;2022-12-18T04:28:17;10.43;;;7.20;;
9102;SDS011;4587;51.434;6.788;2022-12-18T04:30:43;11.70;;;7.20;;
9102;SDS011;4587;51.434;6.788;2022-12-18T04:33:11;9.73;;;7.20;;
9102;SDS011;4587;51.434;6.788;2022-12-18T04:35:44;9.20;;;6.90;;
9102;SDS011;4587;51.434;6.788;2022-12-18T04:38:10;8.57;;;6.63;;
9102;SDS011;4587;51.434;6.788;2022-12-18T04:40:36;8.67;;;6.20;;
9102;SDS011;4587;51.434;6.788;2022-12-18T04:43:03;9.43;;;6.93;;
9102;SDS011;4587;51.434;6.788;2022-12-18T04:45:29;9.50;;;6.60;;
9102;SDS011;4587;51.434;6.788;2022-12-18T04:47:57;9.50;;;7.20;;
9102;SDS011;4587;51.434;6.788;2022-12-18T04:50:23;9.73;;;6.97;;
9102;SDS011;4587;51.434;6.788;2022-12-18T04:52:48;10.13;;;6.60;;
9102;SDS011;4587;51.434;6.788;2022-12-18T04:55:14;9.47;;;6.80;;
9102;SDS011;4587;51.434;6.788;2022-12-18T04:57:39;9.50;;;6.77;;
9102;SDS011;4587;51.434;6.788;2022-12-18T05:00:05;9.97;;;6.63;;
9102;SDS011;4587;51.434;6.788;2022-12-18T05:02:31;8.83;;;6.10;;
9102;SDS011;4587;51.434;6.788;2022-12-18T05:04:57;10.93;;;7.17;;
9102;SDS011;4587;51.434;6.788;2022-12-18T05:07:23;9.13;;;6.27;;
9102;SDS011;4587;51.434;6.788;2022-12-18T05:09:48;8.37;;;6.60;;
9102;SDS011;4587;51.434;6.788;2022-12-18T05:12:14;8.27;;;6.40;;
9102;SDS011;4587;51.434;6.788;2022-12-18T05:14:39;10.00;;;6.57;;
9102;SDS011;4587;51.434;6.788;2022-12-18T05:17:05;9.57;;;6.80;;
9102;SDS011;4587;51.434;6.788;2022-12-18T05:19:30;8.50;;;6.30;;
9102;SDS011;4587;51.434;6.788;2022-12-18T05:21:56;8.60;;;6.40;;
9102;SDS011;4587;51.434;6.788;2022-12-18T05:24:22;9.73;;;6.73;;
9102;SDS011;4587;51.434;6.788;2022-12-18T05:26:47;8.17;;;6.47;;
9102;SDS011;4587;51.434;6.788;2022-12-18T05:29:13;8.43;;;6.40;;
9102;SDS011;4587;51.434;6.788;2022-12-18T05:31:39;8.47;;;6.20;;
9102;SDS011;4587;51.434;6.788;2022-12-18T05:34:04;8.17;;;6.27;;
9102;SDS011;4587;51.434;6.788;2022-12-18T05:36:30;7.97;;;6.23;;
9102;SDS011;4587;51.434;6.788;2022-12-18T05:38:56;8.57;;;6.10;;
9102;SDS011;4587;51.434;6.788;2022-12-18T05:41:21;10.23;;;6.43;;
9102;SDS011;4587;51.434;6.788;2022-12-18T05:43:47;8.93;;;6.50;;
9102;SDS011;4587;51.434;6.788;2022-12-18T05:46:13;8.23;;;6.40;;
9102;SDS011;4587;51.434;6.788;2022-12-18T05:48:41;9.23;;;7.07;;
9102;SDS011;4587;51.434;6.788;2022-12-18T05:51:08;7.80;;;6.17;;
9102;SDS011;4587;51.434;6.788;2022-12-18T05:53:36;8.93;;;6.40;;
9102;SDS011;4587;51.434;6.788;2022-12-18T05:56:03;9.97;;;6.63;;
9102;SDS011;4587;51.434;6.788;2022-12-18T05:58:31;9.03;;;6.37;;
9102;SDS011;4587;51.434;6.788;2022-12-18T06:00:58;8.67;;;6.70;;
9102;SDS011;4587;51.434;6.788;2022-12-18T06:03:31;11.53;;;7.20;;
9102;SDS011;4587;51.434;6.788;2022-12-18T06:05:56;10.83;;;7.37;;
9102;SDS011;4587;51.434;6.788;2022-12-18T06:08:22;9.20;;;6.80;;
9102;SDS011;4587;51.434;6.788;2022-12-18T06:10:51;8.27;;;6.50;;
9102;SDS011;4587;51.434;6.788;2022-12-18T06:13:17;9.57;;;7.20;;
9102;SDS011;4587;51.434;6.788;2022-12-18T06:15:44;9.50;;;6.90;;
9102;SDS011;4587;51.434;6.788;2022-12-18T06:18:09;12.47;;;7.00;;
9102;SDS011;4587;51.434;6.788;2022-12-18T06:20:35;10.20;;;7.33;;
9102;SDS011;4587;51.434;6.788;2022-12-18T06:23:02;10.97;;;7.03;;
9102;SDS011;4587;51.434;6.788;2022-12-18T06:25:28;10.23;;;6.83;;
9102;SDS011;4587;51.434;6.788;2022-12-18T06:27:53;11.13;;;7.33;;
9102;SDS011;4587;51.434;6.788;2022-12-18T06:30:19;9.27;;;6.37;;
9102;SDS011;4587;51.434;6.788;2022-12-18T06:32:45;9.27;;;7.00;;
9102;SDS011;4587;51.434;6.788;2022-12-18T06:35:12;9.63;;;7.20;;
9102;SDS011;4587;51.434;6.788;2022-12-18T06:37:38;9.37;;;6.90;;
9102;SDS011;4587;51.434;6.788;2022-12-18T06:40:03;10.50;;;7.23;;
9102;SDS011;4587;51.434;6.788;2022-12-18T06:42:30;11.03;;;7.40;;
9102;SDS011;4587;51.434;6.788;2022-12-18T06:44:55;9.97;;;6.83;;
9102;SDS011;4587;51.434;6.788;2022-12-18T06:47:21;10.67;;;7.23;;
9102;SDS011;4587;51.434;6.788;2022-12-18T06:49:46;9.70;;;6.90;;
9102;SDS011;4587;51.434;6.788;2022-12-18T06:52:12;10.20;;;7.00;;
9102;SDS011;4587;51.434;6.788;2022-12-18T06:54:37;10.27;;;7.10;;
9102;SDS011;4587;51.434;6.788;2022-12-18T06:57:03;11.23;;;7.43;;
9102;SDS011;4587;51.434;6.788;2022-12-18T06:59:28;11.90;;;7.20;;
9102;SDS011;4587;51.434;6.788;2022-12-18T07:01:54;11.13;;;7.43;;
9102;SDS011;4587;51.434;6.788;2022-12-18T07:04:19;10.60;;;7.60;;
9102;SDS011;4587;51.434;6.788;2022-12-18T07:06:45;11.20;;;7.80;;
9102;SDS011;4587;51.434;6.788;2022-12-18T07:09:10;11.43;;;7.73;;
9102;SDS011;4587;51.434;6.788;2022-12-18T07:11:36;11.53;;;7.53;;
9102;SDS011;4587;51.434;6.788;2022-12-18T07:14:01;11.80;;;7.80;;
9102;SDS011;4587;51.434;6.788;2022-12-18T07:16:27;10.13;;;7.30;;
9102;SDS011;4587;51.434;6.788;2022-12-18T07:18:56;10.93;;;7.67;;
9102;SDS011;4587;51.434;6.788;2022-12-18T07:21:22;10.87;;;7.57;;
9102;SDS011;4587;51.434;6.788;2022-12-18T07:23:48;10.23;;;7.30;;
9102;SDS011;4587;51.434;6.788;2022-12-18T07:26:15;13.23;;;7.20;;
9102;SDS011;4587;51.434;6.788;2022-12-18T07:28:42;9.57;;;6.90;;
9102;SDS011;4587;51.434;6.788;2022-12-18T07:31:08;11.70;;;7.87;;
9102;SDS011;4587;51.434;6.788;2022-12-18T07:33:36;9.97;;;7.40;;
9102;SDS011;4587;51.434;6.788;2022-12-18T07:36:04;12.50;;;7.60;;
9102;SDS011;4587;51.434;6.788;2022-12-18T07:38:31;11.40;;;8.00;;
9102;SDS011;4587;51.434;6.788;2022-12-18T07:41:01;12.43;;;7.70;;
9102;SDS011;4587;51.434;6.788;2022-12-18T07:43:27;10.97;;;8.03;;
9102;SDS011;4587;51.434;6.788;2022-12-18T07:45:53;13.33;;;8.37;;
9102;SDS011;4587;51.434;6.788;2022-12-18T07:48:19;11.47;;;7.73;;
9102;SDS011;4587;51.434;6.788;2022-12-18T07:50:44;12.23;;;7.77;;
9102;SDS011;4587;51.434;6.788;2022-12-18T07:53:10;13.00;;;7.47;;
9102;SDS011;4587;51.434;6.788;2022-12-18T07:55:35;10.90;;;7.33;;
9102;SDS011;4587;51.434;6.788;2022-12-18T07:58:01;13.60;;;7.80;;
9102;SDS011;4587;51.434;6.788;2022-12-18T08:00:27;11.60;;;8.17;;
9102;SDS011;4587;51.434;6.788;2022-12-18T08:02:53;12.77;;;7.67;;
9102;SDS011;4587;51.434;6.788;2022-12-18T08:05:19;9.73;;;7.03;;
9102;SDS011;4587;51.434;6.788;2022-12-18T08:07:45;11.27;;;7.57;;
9102;SDS011;4587;51.434;6.788;2022-12-18T08:10:11;10.67;;;7.70;;
9102;SDS011;4587;51.434;6.788;2022-12-18T08:12:37;11.27;;;7.83;;
9102;SDS011;4587;51.434;6.788;2022-12-18T08:15:02;11.67;;;7.93;;
9102;SDS011;4587;51.434;6.788;2022-12-18T08:17:28;12.17;;;8.27;;
9102;SDS011;4587;51.434;6.788;2022-12-18T08:19:54;11.47;;;8.43;;
9102;SDS011;4587;51.434;6.788;2022-12-18T08:22:19;14.10;;;9.30;;
9102;SDS011;4587;51.434;6.788;2022-12-18T08:24:45;12.43;;;8.03;;
9102;SDS011;4587;51.434;6.788;2022-12-18T08:27:10;15.63;;;9.53;;
9102;SDS011;4587;51.434;6.788;2022-12-18T08:29:36;12.80;;;9.47;;
9102;SDS011;4587;51.434;6.788;2022-12-18T08:32:02;15.87;;;9.77;;
9102;SDS011;4587;51.434;6.788;2022-12-18T08:34:31;14.33;;;9.83;;
9102;SDS011;4587;51.434;6.788;2022-12-18T08:36:56;14.20;;;9.67;;
9102;SDS011;4587;51.434;6.788;2022-12-18T08:39:22;12.60;;;9.20;;
9102;SDS011;4587;51.434;6.788;2022-12-18T08:41:47;15.97;;;9.63;;
9102;SDS011;4587;51.434;6.788;2022-12-18T08:44:33;12.20;;;8.90;;
9102;SDS011;4587;51.434;6.788;2022-12-18T08:47:07;12.13;;;9.43;;
9102;SDS011;4587;51.434;6.788;2022-12-18T08:49:33;15.00;;;9.63;;
9102;SDS011;4587;51.434;6.788;2022-12-18T08:51:59;15.57;;;10.20;;
9102;SDS011;4587;51.434;6.788;2022-12-18T08:54:25;19.33;;;13.20;;
9102;SDS011;4587;51.434;6.788;2022-12-18T08:56:51;23.33;;;15.57;;
9102;SDS011;4587;51.434;6.788;2022-12-18T08:59:17;25.17;;;17.43;;
9102;SDS011;4587;51.434;6.788;2022-12-18T09:01:43;26.27;;;17.53;;
9102;SDS011;4587;51.434;6.788;2022-12-18T09:04:09;24.67;;;17.03;;
9102;SDS011;4587;51.434;6.788;2022-12-18T09:06:35;21.80;;;15.37;;
9102;SDS011;4587;51.434;6.788;2022-12-18T09:09:02;24.90;;;16.60;;
9102;SDS011;4587;51.434;6.788;2022-12-18T09:11:29;23.67;;;16.20;;
9102;SDS011;4587;51.434;6.788;2022-12-18T09:13:55;27.17;;;17.63;;
9102;SDS011;4587;51.434;6.788;2022-12-18T09:16:22;26.43;;;17.47;;
9102;SDS011;4587;51.434;6.788;2022-12-18T09:18:48;25.73;;;15.80;;
9102;SDS011;4587;51.434;6.788;2022-12-18T09:21:15;20.80;;;14.20;;
9102;SDS011;4587;51.434;6.788;2022-12-18T09:23:43;17.27;;;11.93;;
9102;SDS011;4587;51.434;6.788;2022-12-18T09:26:08;14.90;;;9.27;;
9102;SDS011;4587;51.434;6.788;2022-12-18T09:28:34;12.77;;;8.80;;
9102;SDS011;4587;51.434;6.788;2022-12-18T09:31:03;12.93;;;8.47;;
9102;SDS011;4587;51.434;6.788;2022-12-18T09:33:33;17.07;;;11.87;;
9102;SDS011;4587;51.434;6.788;2022-12-18T09:36:00;20.37;;;13.87;;
9102;SDS011;4587;51.434;6.788;2022-12-18T09:38:28;24.20;;;16.13;;
9102;SDS011;4587;51.434;6.788;2022-12-18T09:40:55;19.33;;;12.43;;
9102;SDS011;4587;51.434;6.788;2022-12-18T09:43:45;17.60;;;11.40;;
9102;SDS011;4587;51.434;6.788;2022-12-18T09:46:23;14.17;;;9.97;;
9102;SDS011;4587;51.434;6.788;2022-12-18T09:48:54;11.80;;;8.17;;
9102;SDS011;4587;51.434;6.788;2022-12-18T09:51:29;13.53;;;9.80;;
9102;SDS011;4587;51.434;6.788;2022-12-18T09:54:01;13.27;;;10.33;;
9102;SDS011;4587;51.434;6.788;2022-12-18T09:56:32;10.60;;;8.53;;
9102;SDS011;4587;51.434;6.788;2022-12-18T09:59:02;11.23;;;7.87;;
9102;SDS011;4587;51.434;6.788;2022-12-18T10:01:29;9.40;;;6.60;;
9102;SDS011;4587;51.434;6.788;2022-12-18T10:03:56;8.07;;;6.13;;
9102;SDS011;4587;51.434;6.788;2022-12-18T10:06:27;9.07;;;5.90;;
9102;SDS011;4587;51.434;6.788;2022-12-18T10:11:38;7.13;;;5.50;;
9102;SDS011;4587;51.434;6.788;2022-12-18T10:19:40;8.77;;;6.00;;
9102;SDS011;4587;51.434;6.788;2022-12-18T10:22:35;7.43;;;5.07;;
9102;SDS011;4587;51.434;6.788;2022-12-18T10:25:28;7.60;;;5.57;;
9102;SDS011;4587;51.434;6.788;2022-12-18T10:28:09;7.23;;;5.30;;
9102;SDS011;4587;51.434;6.788;2022-12-18T10:30:41;8.67;;;5.50;;
9102;SDS011;4587;51.434;6.788;2022-12-18T10:33:12;7.33;;;5.80;;
9102;SDS011;4587;51.434;6.788;2022-12-18T10:35:43;10.03;;;5.90;;
9102;SDS011;4587;51.434;6.788;2022-12-18T10:40:52;11.07;;;6.60;;
9102;SDS011;4587;51.434;6.788;2022-12-18T10:43:27;8.17;;;6.17;;
9102;SDS011;4587;51.434;6.788;2022-12-18T10:46:02;8.03;;;6.13;;
9102;SDS011;4587;51.434;6.788;2022-12-18T10:48:28;9.23;;;6.07;;
9102;SDS011;4587;51.434;6.788;2022-12-18T10:50:55;13.10;;;6.50;;
9102;SDS011;4587;51.434;6.788;2022-12-18T10:53:23;7.83;;;5.80;;
9102;SDS011;4587;51.434;6.788;2022-12-18T10:56:00;12.73;;;6.40;;
9102;SDS011;4587;51.434;6.788;2022-12-18T10:58:35;9.47;;;5.93;;
9102;SDS011;4587;51.434;6.788;2022-12-18T11:03:43;8.87;;;5.87;;
9102;SDS011;4587;51.434;6.788;2022-12-18T11:06:19;10.40;;;5.77;;
9102;SDS011;4587;51.434;6.788;2022-12-18T11:09:01;10.33;;;5.80;;
9102;SDS011;4587;51.434;6.788;2022-12-18T11:11:27;9.23;;;6.67;;
9102;SDS011;4587;51.434;6.788;2022-12-18T11:13:58;9.13;;;6.13;;
9102;SDS011;4587;51.434;6.788;2022-12-18T11:16:44;7.43;;;5.83;;
9102;SDS011;4587;51.434;6.788;2022-12-18T11:27:27;10.00;;;6.07;;
9102;SDS011;4587;51.434;6.788;2022-12-18T11:30:06;8.67;;;6.27;;
9102;SDS011;4587;51.434;6.788;2022-12-18T11:32:34;8.50;;;6.30;;
9102;SDS011;4587;51.434;6.788;2022-12-18T11:35:20;11.87;;;6.90;;
9102;SDS011;4587;51.434;6.788;2022-12-18T11:37:54;11.47;;;6.27;;
9102;SDS011;4587;51.434;6.788;2022-12-18T11:40:27;11.17;;;6.53;;
9102;SDS011;4587;51.434;6.788;2022-12-18T11:43:21;7.60;;;5.73;;
9102;SDS011;4587;51.434;6.788;2022-12-18T11:45:53;8.50;;;6.33;;
9102;SDS011;4587;51.434;6.788;2022-12-18T11:48:26;11.40;;;6.87;;
9102;SDS011;4587;51.434;6.788;2022-12-18T11:50:56;12.53;;;6.83;;
9102;SDS011;4587;51.434;6.788;2022-12-18T11:53:26;9.63;;;6.80;;
9102;SDS011;4587;51.434;6.788;2022-12-18T11:59:00;12.60;;;7.37;;
9102;SDS011;4587;51.434;6.788;2022-12-18T12:04:24;11.70;;;7.47;;
9102;SDS011;4587;51.434;6.788;2022-12-18T12:07:12;9.50;;;7.27;;
9102;SDS011;4587;51.434;6.788;2022-12-18T12:15:40;12.10;;;7.47;;
9102;SDS011;4587;51.434;6.788;2022-12-18T12:20:59;9.53;;;7.20;;
9102;SDS011;4587;51.434;6.788;2022-12-18T12:26:08;11.93;;;8.83;;
9102;SDS011;4587;51.434;6.788;2022-12-18T12:39:38;11.17;;;7.70;;
9102;SDS011;4587;51.434;6.788;2022-12-18T12:42:19;10.00;;;7.80;;
9102;SDS011;4587;51.434;6.788;2022-12-18T12:45:18;13.30;;;9.03;;
9102;SDS011;4587;51.434;6.788;2022-12-18T12:47:49;14.67;;;10.50;;
9102;SDS011;4587;51.434;6.788;2022-12-18T12:50:16;17.37;;;11.97;;
9102;SDS011;4587;51.434;6.788;2022-12-18T12:52:50;13.77;;;10.70;;
9102;SDS011;4587;51.434;6.788;2022-12-18T12:55:22;12.47;;;8.70;;
9102;SDS011;4587;51.434;6.788;2022-12-18T12:58:01;11.53;;;8.23;;
9102;SDS011;4587;51.434;6.788;2022-12-18T13:00:41;10.50;;;8.07;;
9102;SDS011;4587;51.434;6.788;2022-12-18T13:05:55;12.87;;;8.27;;
9102;SDS011;4587;51.434;6.788;2022-12-18T13:08:30;10.60;;;8.03;;
9102;SDS011;4587;51.434;6.788;2022-12-18T13:11:27;12.73;;;8.30;;
9102;SDS011;4587;51.434;6.788;2022-12-18T13:14:31;13.63;;;9.10;;
9102;SDS011;4587;51.434;6.788;2022-12-18T13:17:33;12.30;;;8.47;;
9102;SDS011;4587;51.434;6.788;2022-12-18T13:20:07;11.23;;;8.83;;
9102;SDS011;4587;51.434;6.788;2022-12-18T13:22:45;11.63;;;8.63;;
9102;SDS011;4587;51.434;6.788;2022-12-18T13:38:23;13.27;;;10.00;;
9102;SDS011;4587;51.434;6.788;2022-12-18T13:41:01;13.70;;;8.83;;
9102;SDS011;4587;51.434;6.788;2022-12-18T13:48:53;14.90;;;9.97;;
9102;SDS011;4587;51.434;6.788;2022-12-18T13:51:29;17.93;;;10.47;;
9102;SDS011;4587;51.434;6.788;2022-12-18T13:53:58;14.57;;;10.10;;
9102;SDS011;4587;51.434;6.788;2022-12-18T13:56:31;12.90;;;9.77;;
9102;SDS011;4587;51.434;6.788;2022-12-18T14:02:28;13.80;;;10.40;;
9102;SDS011;4587;51.434;6.788;2022-12-18T14:04:39;14.50;;;10.70;;
9102;SDS011;4587;51.434;6.788;2022-12-18T14:07:05;15.27;;;10.63;;
9102;SDS011;4587;51.434;6.788;2022-12-18T14:09:36;17.57;;;10.63;;
9102;SDS011;4587;51.434;6.788;2022-12-18T14:12:05;14.53;;;10.13;;
9102;SDS011;4587;51.434;6.788;2022-12-18T14:14:50;16.00;;;10.73;;
9102;SDS011;4587;51.434;6.788;2022-12-18T14:17:17;16.17;;;10.60;;
9102;SDS011;4587;51.434;6.788;2022-12-18T14:19:48;16.90;;;10.27;;
9102;SDS011;4587;51.434;6.788;2022-12-18T14:22:25;16.50;;;11.17;;
9102;SDS011;4587;51.434;6.788;2022-12-18T14:25:14;15.87;;;11.00;;
9102;SDS011;4587;51.434;6.788;2022-12-18T14:27:47;16.23;;;11.17;;
9102;SDS011;4587;51.434;6.788;2022-12-18T14:33:04;16.80;;;12.27;;
9102;SDS011;4587;51.434;6.788;2022-12-18T14:35:51;16.00;;;11.43;;
9102;SDS011;4587;51.434;6.788;2022-12-18T14:38:32;15.80;;;11.20;;
9102;SDS011;4587;51.434;6.788;2022-12-18T14:41:00;18.20;;;11.40;;
9102;SDS011;4587;51.434;6.788;2022-12-18T14:43:28;17.57;;;11.37;;
9102;SDS011;4587;51.434;6.788;2022-12-18T14:45:56;16.23;;;11.60;;
9102;SDS011;4587;51.434;6.788;2022-12-18T14:48:38;17.07;;;12.03;;
9102;SDS011;4587;51.434;6.788;2022-12-18T14:53:39;17.67;;;12.57;;
9102;SDS011;4587;51.434;6.788;2022-12-18T14:59:00;15.33;;;11.63;;
9102;SDS011;4587;51.434;6.788;2022-12-18T15:04:02;17.93;;;12.63;;
9102;SDS011;4587;51.434;6.788;2022-12-18T15:06:30;18.43;;;13.03;;
9102;SDS011;4587;51.434;6.788;2022-12-18T15:09:01;19.83;;;12.67;;
9102;SDS011;4587;51.434;6.788;2022-12-18T15:11:46;20.17;;;12.47;;
9102;SDS011;4587;51.434;6.788;2022-12-18T15:14:30;17.30;;;12.00;;
9102;SDS011;4587;51.434;6.788;2022-12-18T15:17:05;17.60;;;12.17;;
9102;SDS011;4587;51.434;6.788;2022-12-18T15:19:43;17.30;;;12.40;;
9102;SDS011;4587;51.434;6.788;2022-12-18T15:24:45;14.73;;;12.13;;
9102;SDS011;4587;51.434;6.788;2022-12-18T15:27:21;18.47;;;12.17;;
9102;SDS011;4587;51.434;6.788;2022-12-18T15:30:02;16.93;;;12.40;;
9102;SDS011;4587;51.434;6.788;2022-12-18T15:32:34;16.03;;;11.90;;
9102;SDS011;4587;51.434;6.788;2022-12-18T15:37:36;19.37;;;14.03;;
9102;SDS011;4587;51.434;6.788;2022-12-18T15:40:05;22.37;;;15.87;;
9102;SDS011;4587;51.434;6.788;2022-12-18T15:42:31;25.70;;;17.80;;
9102;SDS011;4587;51.434;6.788;2022-12-18T15:45:15;24.73;;;17.53;;
9102;SDS011;4587;51.434;6.788;2022-12-18T15:47:41;22.03;;;16.10;;
9102;SDS011;4587;51.434;6.788;2022-12-18T15:50:07;21.23;;;14.87;;
9102;SDS011;4587;51.434;6.788;2022-12-18T15:52:35;18.47;;;13.03;;
9102;SDS011;4587;51.434;6.788;2022-12-18T15:55:22;20.27;;;14.20;;
9102;SDS011;4587;51.434;6.788;2022-12-18T15:58:07;20.93;;;12.40;;
9102;SDS011;4587;51.434;6.788;2022-12-18T16:00:34;21.47;;;13.63;;
9102;SDS011;4587;51.434;6.788;2022-12-18T16:03:02;18.00;;;12.87;;
9102;SDS011;4587;51.434;6.788;2022-12-18T16:05:29;21.33;;;14.33;;
9102;SDS011;4587;51.434;6.788;2022-12-18T16:07:55;20.67;;;14.03;;
9102;SDS011;4587;51.434;6.788;2022-12-18T16:10:21;19.13;;;13.70;;
9102;SDS011;4587;51.434;6.788;2022-12-18T16:12:46;19.87;;;14.13;;
9102;SDS011;4587;51.434;6.788;2022-12-18T16:15:13;20.03;;;14.20;;
9102;SDS011;4587;51.434;6.788;2022-12-18T16:17:41;25.53;;;15.80;;
9102;SDS011;4587;51.434;6.788;2022-12-18T16:20:17;22.83;;;15.93;;
9102;SDS011;4587;51.434;6.788;2022-12-18T16:22:45;23.87;;;16.53;;
9102;SDS011;4587;51.434;6.788;2022-12-18T16:25:15;22.70;;;15.87;;
9102;SDS011;4587;51.434;6.788;2022-12-18T16:27:50;24.37;;;15.57;;
9102;SDS011;4587;51.434;6.788;2022-12-18T16:30:21;20.40;;;14.80;;
9102;SDS011;4587;51.434;6.788;2022-12-18T16:32:48;21.93;;;15.67;;
9102;SDS011;4587;51.434;6.788;2022-12-18T16:35:15;21.43;;;14.90;;
9102;SDS011;4587;51.434;6.788;2022-12-18T16:37:41;23.40;;;15.70;;
9102;SDS011;4587;51.434;6.788;2022-12-18T16:40:08;25.97;;;16.70;;
9102;SDS011;4587;51.434;6.788;2022-12-18T16:42:36;23.03;;;15.77;;
9102;SDS011;4587;51.434;6.788;2022-12-18T16:45:07;21.90;;;15.30;;
9102;SDS011;4587;51.434;6.788;2022-12-18T16:47:35;21.50;;;15.37;;
9102;SDS011;4587;51.434;6.788;2022-12-18T16:50:01;22.63;;;16.07;;
9102;SDS011;4587;51.434;6.788;2022-12-18T16:52:28;23.80;;;15.90;;
9102;SDS011;4587;51.434;6.788;2022-12-18T16:54:54;23.83;;;16.27;;
9102;SDS011;4587;51.434;6.788;2022-12-18T16:57:20;23.23;;;16.40;;
9102;SDS011;4587;51.434;6.788;2022-12-18T16:59:46;23.53;;;16.13;;
9102;SDS011;4587;51.434;6.788;2022-12-18T17:02:12;23.37;;;16.43;;
9102;SDS011;4587;51.434;6.788;2022-12-18T17:04:42;23.00;;;15.93;;
9102;SDS011;4587;51.434;6.788;2022-12-18T17:07:08;28.00;;;17.30;;
9102;SDS011;4587;51.434;6.788;2022-12-18T17:09:33;23.87;;;16.90;;
9102;SDS011;4587;51.434;6.788;2022-12-18T17:11:59;24.67;;;16.57;;
9102;SDS011;4587;51.434;6.788;2022-12-18T17:14:25;24.33;;;17.50;;
9102;SDS011;4587;51.434;6.788;2022-12-18T17:16:52;26.47;;;16.90;;
9102;SDS011;4587;51.434;6.788;2022-12-18T17:19:18;23.37;;;17.13;;